Weather reports worldwide

Advertisment
Estepona, Spain (8463): temperature & dewpoint: 10.01.2018 20:00:00 - 16.01.2018 20:00:00 (CET)Estepona, Spain (8463): wind speed & gusts: 10.01.2018 20:00:00 - 16.01.2018 20:00:00 (CET)Estepona, Spain (8463): wind direction: 10.01.2018 20:00:00 - 16.01.2018 20:00:00 (CET)Estepona, Spain (8463): visibility: 10.01.2018 20:00:00 - 16.01.2018 20:00:00 (CET)Estepona, Spain (8463): sunshine duration: 10.01.2018 20:00:00 - 16.01.2018 20:00:00 (CET)Estepona, Spain (8463): precipitation: 10.01.2018 20:00:00 - 16.01.2018 20:00:00 (CET)
Date & Time tt [°C] td [°C] ff [km/h] ff [kn] fx [km/h] fx [kn] dd vv [km] sd [min] rr [mm]
16.01.2018 20:00:00 11,7 7,2 2 1 9 5 NNW 20 0 0,0
16.01.2018 19:00:00 12,7 7,6 4 2 11 6 WSW 20 10 -
16.01.2018 18:00:00 14,2 7,7 6 4 13 7 WSW 20 57 0,0
16.01.2018 17:00:00 15,2 8,2 8 4 11 6 SSW 20 12 0,0
16.01.2018 16:00:00 - - - - - - - - - -
16.01.2018 15:00:00 17,1 7,7 6 4 11 6 SSW 20 0 0,0
16.01.2018 14:00:00 18,0 8,0 5 3 10 5 SSW 20 0 0,0
16.01.2018 13:00:00 16,3 7,5 4 2 6 3 SSW 20 6 -
16.01.2018 12:00:00 15,4 6,2 3 2 7 4 SW 20 60 0,0
16.01.2018 11:00:00 13,5 6,6 4 2 7 4 SW 20 60 0,0
16.01.2018 10:00:00 11,3 5,4 2 1 8 4 SW 20 32 0,0
16.01.2018 09:00:00 9,2 2,5 2 1 8 5 NW 20 0 0,0
16.01.2018 08:00:00 9,7 2,6 5 3 9 5 NW 20 0 0,0
16.01.2018 07:00:00 8,6 3,3 3 2 7 4 NW 20 0 -
16.01.2018 06:00:00 9,3 3,7 3 2 7 4 WNW 20 0 0,0
16.01.2018 05:00:00 9,6 4,0 2 1 9 5 WNW 20 0 0,0
16.01.2018 04:00:00 9,9 4,5 3 1 9 5 NW 20 0 0,0
16.01.2018 03:00:00 - - - - - - - - - -
16.01.2018 02:00:00 10,2 3,3 2 1 8 4 WNW 20 0 0,0
16.01.2018 01:00:00 10,1 3,2 2 1 7 4 NW 20 0 -
16.01.2018 00:00:00 10,1 3,8 2 1 7 4 NNW 20 0 0,0
15.01.2018 23:00:00 10,3 4,0 2 1 8 4 WNW 20 0 0,0
15.01.2018 22:00:00 10,5 4,4 3 1 8 5 WNW 20 0 0,0
15.01.2018 21:00:00 10,9 5,0 4 2 14 7 N 20 0 0,0
15.01.2018 20:00:00 11,4 5,5 7 4 17 9 NNE 20 0 0,0
15.01.2018 19:00:00 12,3 6,4 7 4 35 19 NE 20 9 -
15.01.2018 18:00:00 13,1 6,9 23 13 37 20 ENE 20 57 0,0
15.01.2018 17:00:00 13,6 6,7 20 11 - - E 20 11 0,0
15.01.2018 16:00:00 14,0 6,1 16 9 - - E 20 0 0,0
15.01.2018 15:00:00 15,0 5,5 - - - - - 20 0 0,0
15.01.2018 14:00:00 16,4 5,1 14 8 25 14 E 20 0 0,0
15.01.2018 13:00:00 15,7 3,5 11 6 19 11 E 20 7 -
15.01.2018 12:00:00 14,9 2,1 10 6 19 10 E 20 59 0,0
15.01.2018 11:00:00 12,7 3,9 3 2 7 4 SW 20 60 0,0
15.01.2018 10:00:00 9,8 1,5 1 1 7 4 SSE 20 32 0,0
15.01.2018 09:00:00 7,5 -0,2 3 2 8 4 WNW 20 0 0,0
15.01.2018 08:00:00 6,3 0,0 3 1 6 3 W 20 0 0,0
15.01.2018 07:00:00 7,1 -0,3 1 1 9 5 E 20 0 -
15.01.2018 06:00:00 7,9 -0,6 5 3 9 5 NNW 20 0 0,0
15.01.2018 05:00:00 7,4 0,4 4 2 7 4 WNW 20 0 0,0
15.01.2018 04:00:00 8,1 0,4 3 2 10 6 NW 20 0 0,0
15.01.2018 03:00:00 9,4 0,1 3 2 18 10 NNE 20 0 0,0
15.01.2018 02:00:00 10,0 0,4 6 3 25 14 NE 20 0 0,0
15.01.2018 01:00:00 9,6 1,0 5 3 17 9 NE 20 0 -
15.01.2018 00:00:00 7,8 1,7 2 1 9 5 WNW 20 0 0,0
14.01.2018 23:00:00 8,3 1,9 3 1 10 6 WNW 20 0 0,0
14.01.2018 22:00:00 8,4 2,0 3 2 11 6 W 20 0 0,0
14.01.2018 21:00:00 8,6 2,6 5 3 10 5 W 20 0 0,0
14.01.2018 20:00:00 9,6 2,9 4 2 11 6 W 20 0 0,0
14.01.2018 19:00:00 10,8 3,1 6 3 31 17 W 20 8 -
14.01.2018 18:00:00 12,4 3,4 12 7 25 13 W 20 54 0,0
14.01.2018 17:00:00 12,9 6,5 12 6 27 14 WSW 20 10 0,0
14.01.2018 16:00:00 12,4 7,7 12 6 29 16 WSW 20 0 0,0
14.01.2018 15:00:00 11,5 7,8 8 5 16 9 W 20 0 0,2
14.01.2018 14:00:00 10,7 7,6 10 5 24 13 WSW 20 0 0,2
14.01.2018 13:00:00 10,8 7,5 14 8 26 14 WSW 11 0 -
14.01.2018 12:00:00 11,0 7,1 10 5 27 14 W 20 0 0,2
14.01.2018 11:00:00 11,9 7,2 18 10 33 18 SW 20 0 0,0
14.01.2018 10:00:00 11,6 6,5 8 4 17 9 W 20 0 0,0
14.01.2018 09:00:00 10,6 6,4 6 3 18 10 W 20 0 0,0
14.01.2018 08:00:00 10,8 6,0 11 6 23 12 W 20 0 0,0
14.01.2018 07:00:00 10,6 5,0 6 3 16 8 W 20 0 -
14.01.2018 06:00:00 10,5 4,6 8 5 16 9 W 20 0 0,0
14.01.2018 05:00:00 10,8 4,7 12 6 22 12 WSW 20 0 0,0
14.01.2018 04:00:00 10,9 3,5 10 5 25 13 W 20 0 0,0
14.01.2018 03:00:00 11,1 4,1 9 5 18 10 W 20 0 0,0
14.01.2018 02:00:00 11,0 5,3 9 5 24 13 W 20 0 0,0
14.01.2018 01:00:00 11,1 5,2 10 5 19 11 WSW 20 0 -
14.01.2018 00:00:00 11,6 5,5 12 7 20 11 WSW 20 0 0,0
13.01.2018 23:00:00 11,4 5,3 13 7 28 15 W 20 0 0,0
13.01.2018 22:00:00 11,7 5,1 15 8 26 14 W 20 0 0,0
13.01.2018 21:00:00 10,9 4,6 3 2 10 5 S 20 0 0,0
13.01.2018 20:00:00 12,0 5,2 2 1 23 12 NNW 20 0 0,0
13.01.2018 19:00:00 12,6 8,1 11 6 26 14 WSW 20 8 -
13.01.2018 18:00:00 13,4 9,3 14 8 27 15 SW 20 24 0,0
13.01.2018 17:00:00 13,3 9,4 16 9 32 18 WSW 20 0 0,0
13.01.2018 16:00:00 12,8 9,6 13 7 23 12 SW 20 0 0,2
13.01.2018 15:00:00 13,2 8,5 10 5 28 15 WSW 12 0 0,0
13.01.2018 14:00:00 14,1 7,2 13 7 28 15 W 20 0 0,0
13.01.2018 13:00:00 13,9 7,4 10 6 20 11 WSW 20 0 -
13.01.2018 12:00:00 13,3 7,3 5 3 16 9 WSW 20 0 0,0
13.01.2018 11:00:00 12,0 5,2 4 2 9 5 W 20 0 0,0
13.01.2018 10:00:00 10,6 3,2 4 2 8 4 NW 20 9 0,0
13.01.2018 09:00:00 9,0 2,4 1 1 7 4 WSW 20 0 0,0
13.01.2018 08:00:00 10,2 3,0 3 2 8 4 NW 20 0 0,0
13.01.2018 07:00:00 - - - - - - - - - -
13.01.2018 06:00:00 9,7 1,9 3 2 7 4 NW 20 0 0,0
13.01.2018 05:00:00 9,9 2,5 3 1 7 4 NW 20 0 0,0
13.01.2018 04:00:00 - - - - - - - - - -
13.01.2018 03:00:00 9,9 1,6 3 1 10 5 NW 20 0 0,0
13.01.2018 02:00:00 9,7 0,9 3 2 11 6 N 20 0 0,0
13.01.2018 01:00:00 9,4 1,3 3 1 8 5 NW 20 0 -
13.01.2018 00:00:00 8,9 0,9 2 1 6 3 NW 20 0 0,0
12.01.2018 23:00:00 10,1 0,5 3 2 8 4 NW 20 0 0,0
12.01.2018 22:00:00 9,7 0,3 3 2 6 4 NW 20 0 0,0
12.01.2018 21:00:00 10,8 1,1 5 3 7 4 NNW 20 0 0,0
12.01.2018 20:00:00 10,6 2,0 5 3 7 4 NNW 20 0 0,0
12.01.2018 19:00:00 10,6 2,2 2 1 5 3 NNW 20 3 -
12.01.2018 18:00:00 12,6 2,5 2 1 5 3 SSW 20 27 0,0
12.01.2018 17:00:00 13,7 3,5 3 2 9 5 SW 20 11 0,0
12.01.2018 16:00:00 14,3 3,2 3 1 9 5 SSW 20 0 0,0
12.01.2018 15:00:00 15,3 3,1 4 2 10 5 S 20 0 0,0
12.01.2018 14:00:00 16,7 4,1 4 2 10 5 E 20 0 0,0
12.01.2018 13:00:00 16,0 4,7 4 2 12 6 S 20 3 -
12.01.2018 12:00:00 15,1 3,9 5 3 10 5 S 20 58 0,0
12.01.2018 11:00:00 15,1 5,3 9 5 15 8 E 20 60 0,0
12.01.2018 10:00:00 11,1 1,6 5 3 11 6 W 20 34 0,0
12.01.2018 09:00:00 7,8 1,9 2 1 8 4 NW 20 0 0,0
12.01.2018 08:00:00 8,3 1,5 3 1 8 4 WNW 20 0 0,0
12.01.2018 07:00:00 9,1 2,0 5 3 10 5 N 20 0 -
12.01.2018 06:00:00 9,3 2,4 5 3 11 6 N 20 0 0,0
12.01.2018 05:00:00 8,9 3,3 4 2 8 5 WNW 20 0 0,0
12.01.2018 04:00:00 8,7 3,3 3 2 10 5 ENE 20 0 0,0
12.01.2018 03:00:00 - - - - - - - - - -
12.01.2018 02:00:00 10,7 4,0 4 2 13 7 W 20 0 0,0
12.01.2018 01:00:00 11,6 4,8 7 4 19 10 W 20 0 -
12.01.2018 00:00:00 11,9 5,3 5 3 24 13 W 20 0 0,0
11.01.2018 23:00:00 12,7 5,6 11 6 26 14 W 20 0 0,0
11.01.2018 22:00:00 13,4 5,8 13 7 34 19 W 20 0 0,0
11.01.2018 21:00:00 13,8 5,4 15 8 - - W 20 0 0,0
11.01.2018 20:00:00 14,0 5,6 - - - - - 20 0 0,0
11.01.2018 19:00:00 14,6 4,6 15 8 27 14 WSW 20 1 -
11.01.2018 18:00:00 15,4 3,9 8 4 27 14 WSW 20 45 0,0
11.01.2018 17:00:00 16,3 4,1 14 7 - - WSW 20 8 0,0
11.01.2018 16:00:00 15,9 4,3 - - - - - 20 0 0,0
11.01.2018 15:00:00 16,2 4,0 - - - - - 20 0 0,0
11.01.2018 14:00:00 16,8 4,2 - - - - - 20 0 0,0
11.01.2018 13:00:00 16,9 3,6 - - - - - 20 2 -
11.01.2018 12:00:00 15,5 3,6 - - - - - 20 56 0,0
11.01.2018 11:00:00 13,3 3,7 - - - - - 20 60 0,0
11.01.2018 10:00:00 11,1 1,9 - - - - - 20 31 0,0
11.01.2018 09:00:00 9,5 1,4 6 3 - - W 20 0 0,0
11.01.2018 08:00:00 9,5 1,2 - - - - - 20 0 0,0
11.01.2018 07:00:00 9,8 2,4 3 1 19 11 NW 20 0 -
11.01.2018 06:00:00 10,5 2,8 10 5 23 12 WSW 20 0 0,0
11.01.2018 05:00:00 11,9 3,7 13 7 22 12 WSW 20 0 0,0
11.01.2018 04:00:00 12,6 1,3 - - - - - 20 0 0,0
11.01.2018 03:00:00 12,5 2,4 3 2 34 18 N 20 0 0,0
11.01.2018 02:00:00 13,5 4,1 11 6 - - WSW 20 0 0,0
11.01.2018 01:00:00 14,6 3,1 - - - - - 20 0 -
11.01.2018 00:00:00 14,1 5,7 - - - - - 20 0 0,0
10.01.2018 23:00:00 14,2 9,2 - - - - - 20 0 0,0
10.01.2018 22:00:00 15,3 9,4 - - - - - 20 0 0,0
10.01.2018 21:00:00 15,0 9,4 - - - - - 20 0 0,0
10.01.2018 20:00:00 - - - - - - - - - -

tt = temperature
td = dewpoint
ff = wind speed
fx = gusts
dd = wind direction
vv = visibility
sd = sunshine duration
rr = precipitation

Next stations